Time;durP1;ratioP1;P1;durP2;ratioP2;P2;SDS_P1;SDS_P2;PMS_P1;PMS_P2;Temp;Humidity;BMP_temperature;BMP_pressure;BME280_temperature;BME280_humidity;BME280_pressure;Samples;Min_cycle;Max_cycle;Signal;HPM_P1;HPM_P2
2022/11/26 00:00:44;;;;;;;23.25;9.13;;;;;;;8.01;85.16;102629.19;5057253;28;20513;-48
2022/11/26 00:03:11;;;;;;;21.90;8.70;;;;;;;8.00;85.12;102626.50;5057005;28;20039;-47
2022/11/26 00:05:37;;;;;;;22.13;8.88;;;;;;;7.98;84.87;102628.09;5057594;28;20064;-49
2022/11/26 00:08:03;;;;;;;21.88;8.70;;;;;;;7.97;84.58;102634.00;5062043;28;20036;-48
2022/11/26 00:10:34;;;;;;;22.83;8.15;;;;;;;7.98;84.76;102633.19;5056658;28;20126;-47
2022/11/26 00:13:00;;;;;;;20.48;8.55;;;;;;;7.97;84.85;102639.13;5055061;28;20546;-48
2022/11/26 00:15:28;;;;;;;23.58;8.80;;;;;;;7.93;85.38;102638.00;5056396;28;20451;-48
2022/11/26 00:17:54;;;;;;;24.27;8.88;;;;;;;7.96;85.02;102640.78;5056585;28;20051;-49
2022/11/26 00:20:26;;;;;;;18.23;8.68;;;;;;;7.86;85.88;102651.19;5055130;28;20027;-46
2022/11/26 00:22:54;;;;;;;21.70;8.95;;;;;;;7.88;85.65;102649.63;5054443;28;20526;-46
2022/11/26 00:25:26;;;;;;;24.10;8.98;;;;;;;7.91;85.79;102642.16;5055324;28;20038;-49
2022/11/26 00:27:54;;;;;;;27.05;9.23;;;;;;;7.93;85.62;102648.25;5055314;28;20579;-48
2022/11/26 00:30:24;;;;;;;20.80;8.20;;;;;;;7.93;85.47;102644.81;5052368;28;20046;-47
2022/11/26 00:32:50;;;;;;;20.25;8.80;;;;;;;7.80;85.59;102655.91;5056563;28;20488;-46
2022/11/26 00:35:16;;;;;;;20.67;8.48;;;;;;;7.83;85.28;102650.13;5057187;28;20051;-48
2022/11/26 00:37:47;;;;;;;22.70;8.15;;;;;;;7.85;85.50;102651.09;5058609;28;20482;-49
2022/11/26 00:40:24;;;;;;;22.80;8.60;;;;;;;7.90;85.54;102649.75;5057012;28;20036;-46
2022/11/26 00:42:50;;;;;;;23.20;8.27;;;;;;;7.74;85.28;102642.69;5058752;28;20043;-46
2022/11/26 00:45:21;;;;;;;20.85;8.65;;;;;;;7.75;85.47;102647.00;5059364;28;20025;-47
2022/11/26 00:47:48;;;;;;;17.63;7.93;;;;;;;7.69;85.34;102652.59;5059287;28;20392;-46
2022/11/26 00:50:16;;;;;;;15.77;7.82;;;;;;;7.69;85.34;102650.03;5057535;28;20032;-48
2022/11/26 00:52:42;;;;;;;18.20;7.95;;;;;;;7.63;84.83;102651.31;5056049;28;20032;-47
2022/11/26 00:55:33;;;;;;;19.25;7.70;;;;;;;7.76;84.65;102644.56;5057945;28;20510;-48
2022/11/26 00:57:58;;;;;;;20.80;8.82;;;;;;;7.63;84.52;102654.75;5057728;28;20060;-48
2022/11/26 01:00:27;;;;;;;21.92;8.25;;;;;;;7.71;84.80;102660.41;5059454;28;20606;-47
2022/11/26 01:02:53;;;;;;;20.40;8.88;;;;;;;7.66;84.80;102656.66;5057984;28;20033;-45
2022/11/26 01:05:19;;;;;;;22.30;8.85;;;;;;;7.62;84.91;102654.66;5061399;28;20025;-47
2022/11/26 01:07:46;;;;;;;19.17;7.95;;;;;;;7.62;84.89;102659.78;5064401;28;20393;-49
2022/11/26 01:10:37;;;;;;;21.75;8.38;;;;;;;7.74;84.88;102660.59;5062877;28;20098;-45
2022/11/26 01:13:05;;;;;;;19.63;8.23;;;;;;;7.63;84.90;102657.31;5060672;28;20044;-45
2022/11/26 01:15:30;;;;;;;22.08;8.65;;;;;;;7.60;84.62;102669.91;5063967;28;20036;-48
2022/11/26 01:17:56;;;;;;;19.25;8.15;;;;;;;7.56;85.15;102665.34;5063469;28;20052;-46
2022/11/26 01:20:24;;;;;;;23.70;9.00;;;;;;;7.55;85.39;102663.59;5062302;28;20056;-45
2022/11/26 01:22:50;;;;;;;21.50;8.48;;;;;;;7.46;85.61;102662.94;5060366;28;20029;-46
2022/11/26 01:25:16;;;;;;;23.23;8.88;;;;;;;7.49;85.46;102650.38;5063429;28;20029;-47
2022/11/26 01:27:42;;;;;;;22.00;8.50;;;;;;;7.48;85.70;102653.72;5064215;28;20101;-48
2022/11/26 01:30:19;;;;;;;22.42;8.70;;;;;;;7.53;85.87;102657.50;5062752;28;20032;-47
2022/11/26 01:32:44;;;;;;;20.70;8.43;;;;;;;7.51;85.58;102657.34;5061691;28;20183;-48
2022/11/26 01:35:10;;;;;;;20.50;8.30;;;;;;;7.52;85.53;102658.25;5059637;28;20029;-47
2022/11/26 01:37:35;;;;;;;19.38;8.35;;;;;;;7.45;85.39;102656.94;5062068;28;20044;-47
2022/11/26 01:40:01;;;;;;;26.02;9.10;;;;;;;7.46;85.43;102661.28;5061929;28;20088;-48
2022/11/26 01:42:45;;;;;;;21.45;8.10;;;;;;;7.53;85.72;102657.50;5062654;28;20027;-47
2022/11/26 01:45:20;;;;;;;22.58;8.75;;;;;;;7.46;85.75;102668.97;5061172;28;20497;-47
2022/11/26 01:47:49;;;;;;;20.08;8.27;;;;;;;7.45;84.85;102668.84;5062162;28;20029;-48
2022/11/26 01:50:35;;;;;;;21.05;8.25;;;;;;;7.50;85.21;102676.06;5062328;28;20028;-46
2022/11/26 01:53:05;;;;;;;19.92;7.75;;;;;;;7.43;84.47;102680.66;5061881;28;20028;-48
2022/11/26 01:55:53;;;;;;;20.80;8.32;;;;;;;7.43;85.25;102676.41;5062499;28;20021;-47
2022/11/26 01:58:27;;;;;;;21.73;7.80;;;;;;;7.36;85.12;102673.34;5061596;28;20107;-45
2022/11/26 02:00:53;;;;;;;17.67;8.23;;;;;;;7.33;85.44;102678.22;5064618;28;20020;-47
2022/11/26 02:03:19;;;;;;;20.42;8.23;;;;;;;7.28;85.31;102671.88;5063339;28;20024;-48
2022/11/26 02:05:58;;;;;;;22.08;8.30;;;;;;;7.30;85.70;102676.34;5060210;28;20469;-46
2022/11/26 02:08:26;;;;;;;23.25;8.27;;;;;;;7.30;85.32;102686.59;5063166;28;20534;-50
2022/11/26 02:10:52;;;;;;;18.75;7.28;;;;;;;7.24;85.57;102681.03;5062790;28;20036;-46
2022/11/26 02:13:18;;;;;;;18.65;8.30;;;;;;;7.29;85.08;102686.50;5060002;28;20028;-48
2022/11/26 02:15:54;;;;;;;22.85;8.07;;;;;;;7.26;85.92;102692.25;5062900;28;20489;-47
2022/11/26 02:18:23;;;;;;;24.33;8.20;;;;;;;7.27;85.48;102694.03;5061768;28;20528;-48
2022/11/26 02:21:24;;;;;;;20.35;8.55;;;;;;;7.35;85.77;102700.59;5059906;28;20024;-48
2022/11/26 02:23:58;;;;;;;19.42;8.13;;;;;;;7.25;86.29;102701.59;5061454;28;20036;-48
2022/11/26 02:26:42;;;;;;;22.80;8.32;;;;;;;7.30;86.11;102701.94;5061193;28;20094;-47
2022/11/26 02:29:39;;;;;;;21.42;8.05;;;;;;;7.29;86.18;102709.53;5058922;28;20546;-47
2022/11/26 02:32:18;;;;;;;17.23;7.47;;;;;;;7.28;86.09;102711.19;5062707;28;20033;-47
2022/11/26 02:34:52;;;;;;;20.00;8.02;;;;;;;7.21;86.58;102712.41;5061606;28;20036;-48
2022/11/26 02:37:20;;;;;;;18.15;7.50;;;;;;;7.20;86.62;102709.75;5062861;28;20028;-46
2022/11/26 02:39:46;;;;;;;20.73;8.63;;;;;;;7.11;86.45;102693.75;5061852;28;20047;-48
2022/11/26 02:42:43;;;;;;;17.42;7.65;;;;;;;7.25;86.42;102698.16;5061016;28;20024;-49
2022/11/26 02:45:16;;;;;;;23.95;8.82;;;;;;;7.13;86.68;102698.19;5048938;28;20763;-47
2022/11/26 02:47:45;;;;;;;17.70;7.78;;;;;;;7.16;86.48;102700.97;5060690;28;20044;-48
2022/11/26 02:50:17;;;;;;;21.40;8.00;;;;;;;7.15;86.28;102703.41;5059103;28;20059;-47
2022/11/26 02:52:43;;;;;;;17.42;8.00;;;;;;;7.18;86.02;102703.63;5062274;28;20025;-47
2022/11/26 02:55:11;;;;;;;17.92;7.28;;;;;;;7.18;85.83;102709.63;5061114;28;20032;-46
2022/11/26 02:57:45;;;;;;;16.25;7.35;;;;;;;7.20;85.60;102713.19;5060000;28;20396;-47
2022/11/26 03:00:11;;;;;;;20.67;7.93;;;;;;;7.12;85.33;102706.66;5060512;28;20043;-47
2022/11/26 03:02:50;;;;;;;22.25;8.00;;;;;;;7.20;85.66;102710.63;5062210;28;20033;-47
2022/11/26 03:05:17;;;;;;;20.45;7.85;;;;;;;7.15;85.51;102706.84;5061038;28;20038;-48
2022/11/26 03:07:46;;;;;;;18.33;7.65;;;;;;;7.13;85.72;102713.53;5061377;28;20406;-47
2022/11/26 03:10:12;;;;;;;19.42;7.82;;;;;;;7.08;85.78;102712.31;5062250;28;20048;-48
2022/11/26 03:12:38;;;;;;;17.60;7.60;;;;;;;7.10;85.91;102713.34;5062184;28;20029;-47
2022/11/26 03:15:04;;;;;;;17.23;7.55;;;;;;;7.04;86.32;102724.75;5061292;28;20085;-47
2022/11/26 03:17:29;;;;;;;15.90;8.25;;;;;;;7.07;86.06;102732.66;5058768;28;20047;-48
2022/11/26 03:19:55;;;;;;;24.02;8.13;;;;;;;7.05;86.28;102731.69;5062552;28;20040;-47
2022/11/26 03:22:20;;;;;;;21.17;8.18;;;;;;;7.08;86.27;102739.56;5060828;28;20039;-46
2022/11/26 03:24:46;;;;;;;24.90;8.52;;;;;;;7.02;86.76;102734.00;5061696;28;20041;-49
2022/11/26 03:27:11;;;;;;;21.75;7.90;;;;;;;7.06;86.62;102733.47;5060292;28;20044;-47
2022/11/26 03:29:36;;;;;;;17.25;7.85;;;;;;;7.02;86.85;102737.44;5061890;28;20044;-47
2022/11/26 03:32:02;;;;;;;18.35;7.80;;;;;;;6.97;87.22;102743.91;5060169;28;20099;-46
2022/11/26 03:34:27;;;;;;;21.40;7.50;;;;;;;6.99;87.18;102745.81;5061115;28;20119;-45
2022/11/26 03:36:52;;;;;;;25.35;7.68;;;;;;;6.98;87.46;102741.47;5064264;28;20032;-46
2022/11/26 03:39:18;;;;;;;21.08;7.78;;;;;;;6.90;87.80;102747.69;5060592;28;20155;-47
2022/11/26 03:41:43;;;;;;;23.02;8.63;;;;;;;6.91;87.93;102748.56;5061377;28;20063;-47
2022/11/26 03:44:12;;;;;;;23.65;8.10;;;;;;;6.96;87.75;102745.56;5060328;28;20066;-45
2022/11/26 03:46:38;;;;;;;21.55;7.55;;;;;;;6.92;88.17;102742.69;5058771;28;20154;-45
2022/11/26 03:49:03;;;;;;;26.10;8.52;;;;;;;6.87;88.18;102749.16;5061323;28;20107;-47
2022/11/26 03:51:29;;;;;;;20.77;8.50;;;;;;;6.88;87.95;102746.69;5061198;28;20464;-46
2022/11/26 03:53:54;;;;;;;22.58;7.97;;;;;;;6.87;88.65;102750.03;5059704;28;20041;-47
2022/11/26 03:56:19;;;;;;;19.63;7.80;;;;;;;6.90;88.13;102751.91;5058952;28;20024;-50
2022/11/26 03:58:45;;;;;;;22.02;7.53;;;;;;;6.92;88.22;102750.38;5061923;28;20067;-48
2022/11/26 04:01:11;;;;;;;23.75;7.88;;;;;;;6.97;88.11;102749.00;5061162;28;20024;-48
2022/11/26 04:03:37;;;;;;;23.00;8.25;;;;;;;6.92;87.81;102747.81;5058170;28;20024;-47
2022/11/26 04:06:03;;;;;;;21.55;7.68;;;;;;;6.90;87.87;102749.34;5061794;28;20032;-47
2022/11/26 04:08:28;;;;;;;22.17;7.95;;;;;;;6.88;87.99;102745.81;5059261;28;20086;-44
2022/11/26 04:10:54;;;;;;;23.25;8.30;;;;;;;6.88;87.88;102759.47;5064813;28;20088;-46
2022/11/26 04:13:19;;;;;;;23.88;8.02;;;;;;;6.85;88.17;102766.91;5063807;28;20060;-47
2022/11/26 04:15:44;;;;;;;19.23;7.53;;;;;;;6.84;88.19;102766.81;5060018;28;20064;-47
2022/11/26 04:18:10;;;;;;;16.13;6.97;;;;;;;6.91;88.09;102766.47;5063769;28;20059;-48
2022/11/26 04:20:35;;;;;;;26.17;8.88;;;;;;;6.92;88.13;102775.94;5063738;28;20052;-47
2022/11/26 04:23:00;;;;;;;21.35;7.80;;;;;;;6.86;88.10;102770.38;5065465;28;20090;-45
2022/11/26 04:25:26;;;;;;;22.95;8.13;;;;;;;6.90;87.80;102768.13;5063870;28;20376;-47
2022/11/26 04:27:51;;;;;;;19.25;7.97;;;;;;;6.87;87.65;102774.72;5065216;28;20123;-46
2022/11/26 04:30:17;;;;;;;19.05;7.40;;;;;;;6.87;87.85;102777.28;5063816;28;20507;-48
2022/11/26 04:32:42;;;;;;;21.30;8.10;;;;;;;6.86;87.83;102767.81;5062954;28;20028;-47
2022/11/26 04:35:08;;;;;;;18.98;7.47;;;;;;;6.89;87.67;102773.16;5062976;28;20369;-45
2022/11/26 04:37:34;;;;;;;23.83;7.43;;;;;;;6.83;88.12;102778.69;5057102;28;20035;-48
2022/11/26 04:40:00;;;;;;;22.23;7.38;;;;;;;6.85;88.10;102776.25;5060755;28;20025;-45
2022/11/26 04:42:25;;;;;;;22.33;7.55;;;;;;;6.79;88.22;102769.00;5061509;28;20033;-46
2022/11/26 04:44:50;;;;;;;19.23;7.53;;;;;;;6.82;87.93;102774.38;5060078;28;20040;-48
2022/11/26 04:47:16;;;;;;;19.00;7.13;;;;;;;6.82;88.45;102779.47;5062817;28;20060;-47
2022/11/26 04:49:41;;;;;;;20.67;7.78;;;;;;;6.83;88.23;102782.94;5064737;28;20109;-48
2022/11/26 04:52:07;;;;;;;22.80;7.40;;;;;;;6.80;88.53;102772.50;5061295;28;20024;-48
2022/11/26 04:54:32;;;;;;;18.88;7.32;;;;;;;6.80;88.54;102778.50;5064996;28;20484;-47
2022/11/26 04:56:57;;;;;;;21.50;7.90;;;;;;;6.77;88.46;102782.47;5063466;28;20021;-47
2022/11/26 04:59:23;;;;;;;16.77;7.43;;;;;;;6.74;88.48;102778.03;5063330;28;20086;-51
2022/11/26 05:01:48;;;;;;;21.88;7.90;;;;;;;6.71;88.44;102778.69;5062906;28;20070;-50
2022/11/26 05:04:13;;;;;;;19.85;7.22;;;;;;;6.72;88.32;102774.47;5064437;28;20031;-49
2022/11/26 05:06:39;;;;;;;17.17;6.95;;;;;;;6.70;88.43;102781.13;5064177;28;20181;-49
2022/11/26 05:09:04;;;;;;;20.42;6.90;;;;;;;6.72;88.44;102783.00;5063020;28;20127;-47
2022/11/26 05:11:29;;;;;;;19.00;7.07;;;;;;;6.68;88.46;102787.81;5061339;28;20068;-45
2022/11/26 05:13:55;;;;;;;22.42;7.07;;;;;;;6.76;88.16;102802.03;5064886;28;20103;-45
2022/11/26 05:16:20;;;;;;;19.23;7.25;;;;;;;6.77;88.03;102796.16;5063561;28;20025;-47
2022/11/26 05:18:45;;;;;;;25.70;7.22;;;;;;;6.72;87.60;102798.34;5064575;28;20045;-47
2022/11/26 05:21:11;;;;;;;23.25;6.88;;;;;;;6.74;87.70;102793.38;5062406;28;20099;-46
2022/11/26 05:23:36;;;;;;;22.30;7.53;;;;;;;6.70;87.90;102802.47;5063375;28;20032;-48
2022/11/26 05:26:02;;;;;;;19.88;7.18;;;;;;;6.72;87.80;102794.91;5061784;28;20028;-44
2022/11/26 05:28:27;;;;;;;16.42;6.65;;;;;;;6.67;87.98;102792.03;5062639;28;20032;-49
2022/11/26 05:31:00;;;;;;;16.92;6.72;;;;;;;6.72;88.45;102792.34;5063750;28;20027;-48
2022/11/26 05:33:27;;;;;;;17.98;7.25;;;;;;;6.69;88.21;102799.81;5062665;28;20043;-47
2022/11/26 05:35:52;;;;;;;20.83;6.75;;;;;;;6.71;87.65;102799.13;5064856;28;20025;-47
2022/11/26 05:38:17;;;;;;;19.70;6.20;;;;;;;6.69;87.83;102804.94;5062794;28;20032;-49
2022/11/26 05:40:43;;;;;;;20.65;7.13;;;;;;;6.68;87.79;102801.47;5063780;28;20040;-46
2022/11/26 05:43:08;;;;;;;17.58;6.68;;;;;;;6.71;87.86;102804.25;5062770;28;20025;-48
2022/11/26 05:45:34;;;;;;;17.67;6.75;;;;;;;6.64;87.59;102802.03;5063354;28;20036;-46
2022/11/26 05:47:59;;;;;;;17.30;7.00;;;;;;;6.63;87.37;102810.47;5061385;28;20110;-47
2022/11/26 05:50:24;;;;;;;18.17;6.78;;;;;;;6.55;87.41;102809.00;5061694;28;20032;-47
2022/11/26 05:52:50;;;;;;;25.38;6.90;;;;;;;6.59;86.80;102816.13;5062601;28;20027;-48
2022/11/26 05:55:16;;;;;;;18.60;6.55;;;;;;;6.50;87.32;102824.78;5063414;28;20044;-48
2022/11/26 05:57:42;;;;;;;15.93;6.00;;;;;;;6.56;87.12;102817.56;5062596;28;21989;-45
2022/11/26 06:00:09;;;;;;;20.95;6.53;;;;;;;6.55;87.06;102825.97;5062919;28;20035;-46
2022/11/26 06:02:35;;;;;;;14.68;6.50;;;;;;;6.56;87.06;102827.78;5062157;28;20032;-46
2022/11/26 06:05:01;;;;;;;16.38;6.75;;;;;;;6.58;86.97;102839.00;5064138;28;20043;-45
2022/11/26 06:07:26;;;;;;;18.75;5.93;;;;;;;6.61;86.32;102827.38;5061250;28;20025;-45
2022/11/26 06:09:51;;;;;;;18.20;6.50;;;;;;;6.51;87.10;102832.56;5063255;28;20421;-45
2022/11/26 06:12:17;;;;;;;19.70;6.05;;;;;;;6.54;86.98;102837.88;5062852;28;20374;-45
2022/11/26 06:14:42;;;;;;;18.48;6.28;;;;;;;6.56;87.13;102835.47;5063329;28;20039;-47
2022/11/26 06:17:07;;;;;;;16.13;6.22;;;;;;;6.55;87.13;102842.25;5063754;28;20044;-47
2022/11/26 06:19:33;;;;;;;18.20;6.57;;;;;;;6.42;87.61;102840.38;5062545;28;20024;-48
2022/11/26 06:21:58;;;;;;;17.92;6.13;;;;;;;6.48;87.43;102842.53;5063034;28;20031;-48
2022/11/26 06:24:23;;;;;;;17.27;6.60;;;;;;;6.44;87.50;102840.53;5059727;28;20493;-47
2022/11/26 06:26:49;;;;;;;20.38;6.40;;;;;;;6.41;87.84;102833.50;5062150;28;20151;-48
2022/11/26 06:29:14;;;;;;;20.02;6.32;;;;;;;6.42;87.82;102835.28;5061243;28;20021;-47
2022/11/26 06:31:40;;;;;;;21.83;6.85;;;;;;;6.39;88.22;102844.41;5059869;28;20050;-46
2022/11/26 06:34:05;;;;;;;22.58;7.60;;;;;;;6.41;87.68;102846.28;5057833;28;20035;-47
2022/11/26 06:36:31;;;;;;;27.00;6.82;;;;;;;6.39;87.96;102846.94;5059648;28;20147;-48
2022/11/26 06:38:56;;;;;;;19.05;6.82;;;;;;;6.39;88.26;102845.28;5061074;28;20037;-47
2022/11/26 06:41:21;;;;;;;19.83;6.47;;;;;;;6.42;87.96;102853.16;5060553;28;20569;-47
2022/11/26 06:43:47;;;;;;;20.67;7.05;;;;;;;6.30;88.64;102846.22;5060113;28;20729;-47
2022/11/26 06:46:12;;;;;;;17.52;6.65;;;;;;;6.39;88.10;102854.63;5061052;28;20048;-45
2022/11/26 06:48:38;;;;;;;19.70;6.40;;;;;;;6.37;88.29;102856.13;5063226;28;20032;-48
2022/11/26 06:51:09;;;;;;;19.50;6.32;;;;;;;6.38;87.96;102861.41;5060633;28;20119;-48
2022/11/26 06:53:35;;;;;;;23.80;6.50;;;;;;;6.34;88.29;102861.03;5061038;28;20056;-47
2022/11/26 06:56:06;;;;;;;17.17;6.75;;;;;;;6.32;88.85;102860.91;5061972;28;20059;-46
2022/11/26 06:58:31;;;;;;;19.15;7.15;;;;;;;6.33;88.40;102857.59;5062367;28;20039;-47
2022/11/26 07:00:57;;;;;;;19.23;6.32;;;;;;;6.33;88.44;102860.16;5061007;28;20017;-47
2022/11/26 07:03:23;;;;;;;23.05;6.75;;;;;;;6.32;88.69;102866.03;5059527;28;20432;-47
2022/11/26 07:05:48;;;;;;;20.85;6.43;;;;;;;6.36;88.62;102864.59;5061043;28;20033;-48
2022/11/26 07:08:14;;;;;;;15.50;5.93;;;;;;;6.39;88.38;102869.94;5062334;28;20063;-46
2022/11/26 07:10:39;;;;;;;20.13;6.30;;;;;;;6.38;88.10;102871.63;5057587;28;20039;-46
2022/11/26 07:13:04;;;;;;;15.65;6.18;;;;;;;6.43;88.26;102872.88;5062069;28;20043;-49
2022/11/26 07:15:30;;;;;;;20.13;6.65;;;;;;;6.33;88.32;102875.47;5061379;28;20496;-45
2022/11/26 07:17:57;;;;;;;17.38;6.20;;;;;;;6.29;88.04;102880.22;5062858;28;20048;-48
2022/11/26 07:20:22;;;;;;;22.80;5.90;;;;;;;6.26;89.12;102886.00;5060626;28;20362;-48
2022/11/26 07:22:48;;;;;;;20.10;6.57;;;;;;;6.30;88.40;102882.88;5060097;28;20037;-47
2022/11/26 07:25:13;;;;;;;17.27;6.05;;;;;;;6.27;88.67;102890.31;5057404;28;20040;-46
2022/11/26 07:27:39;;;;;;;21.80;6.57;;;;;;;6.29;88.63;102896.44;5061592;28;20036;-48
2022/11/26 07:30:05;;;;;;;20.50;6.72;;;;;;;6.26;89.19;102896.22;5059950;28;20029;-46
2022/11/26 07:32:31;;;;;;;21.73;6.70;;;;;;;6.28;89.22;102892.09;5061064;28;20036;-47
2022/11/26 07:34:56;;;;;;;18.92;6.50;;;;;;;6.28;89.32;102888.66;5062135;28;20161;-45
2022/11/26 07:37:21;;;;;;;19.45;6.10;;;;;;;6.31;89.63;102894.91;5060931;28;20033;-48
2022/11/26 07:39:47;;;;;;;19.33;6.35;;;;;;;6.31;89.62;102901.66;5060279;28;20387;-44
2022/11/26 07:42:12;;;;;;;20.67;6.63;;;;;;;6.27;89.89;102895.44;5061509;28;20110;-46
2022/11/26 07:44:38;;;;;;;20.88;6.20;;;;;;;6.30;89.73;102898.22;5060635;28;20178;-45
2022/11/26 07:47:04;;;;;;;22.50;6.97;;;;;;;6.29;90.40;102895.53;5065090;28;21695;-47
2022/11/26 07:49:29;;;;;;;19.17;7.03;;;;;;;6.29;89.96;102901.53;5065836;28;20370;-47
2022/11/26 07:51:55;;;;;;;23.70;7.50;;;;;;;6.29;90.37;102903.22;5064453;28;20405;-48
2022/11/26 07:54:20;;;;;;;22.55;8.02;;;;;;;6.30;90.20;102894.78;5066404;28;20040;-50
2022/11/26 07:56:45;;;;;;;22.92;6.93;;;;;;;6.32;90.66;102894.13;5065934;28;20405;-50
2022/11/26 07:59:11;;;;;;;17.63;6.45;;;;;;;6.35;90.86;102891.81;5064988;28;20178;-46
2022/11/26 08:01:36;;;;;;;22.83;7.32;;;;;;;6.31;91.00;102894.91;5064757;28;20043;-46
2022/11/26 08:04:04;;;;;;;20.73;6.60;;;;;;;6.37;91.06;102891.91;5069797;28;20028;-46
2022/11/26 08:06:29;;;;;;;22.58;7.53;;;;;;;6.31;91.27;102891.44;5062208;28;20439;-46
2022/11/26 08:08:56;;;;;;;23.50;7.25;;;;;;;6.33;91.17;102898.47;5063305;28;20029;-48
2022/11/26 08:11:24;;;;;;;22.23;6.85;;;;;;;6.41;91.53;102896.50;5066325;28;20029;-45
2022/11/26 08:13:57;;;;;;;18.70;7.50;;;;;;;6.43;91.46;102903.53;5070642;28;20040;-47
2022/11/26 08:16:23;;;;;;;22.02;7.93;;;;;;;6.41;91.60;102904.16;5071269;28;20028;-45
2022/11/26 08:18:52;;;;;;;20.05;7.32;;;;;;;6.44;91.94;102902.75;5072482;28;20434;-47
2022/11/26 08:21:17;;;;;;;24.05;8.00;;;;;;;6.44;92.06;102905.31;5067653;28;20048;-46
2022/11/26 08:23:43;;;;;;;21.40;7.90;;;;;;;6.50;91.85;102910.00;5070498;28;20437;-46
2022/11/26 08:26:11;;;;;;;25.20;8.10;;;;;;;6.49;92.16;102910.75;5064852;28;20047;-47
2022/11/26 08:28:36;;;;;;;22.73;8.25;;;;;;;6.51;92.03;102910.88;5063337;28;20420;-50
2022/11/26 08:31:03;;;;;;;24.55;8.85;;;;;;;6.55;92.06;102912.88;5063421;28;20025;-48
2022/11/26 08:33:29;;;;;;;23.52;8.20;;;;;;;6.56;92.17;102909.59;5061762;28;20036;-53
2022/11/26 08:35:54;;;;;;;24.85;7.72;;;;;;;6.58;92.23;102914.03;5065834;28;20028;-46
2022/11/26 08:38:20;;;;;;;20.27;8.13;;;;;;;6.60;92.17;102924.38;5065143;28;20104;-46
2022/11/26 08:40:45;;;;;;;24.27;8.70;;;;;;;6.63;92.65;102922.06;5062503;28;20516;-47
2022/11/26 08:43:11;;;;;;;23.42;9.05;;;;;;;6.64;92.65;102921.28;5064507;28;20451;-47
2022/11/26 08:45:36;;;;;;;23.75;9.07;;;;;;;6.66;92.80;102925.72;5060850;28;20028;-48
2022/11/26 08:48:01;;;;;;;18.77;8.55;;;;;;;6.69;92.50;102920.84;5064153;28;20033;-44
2022/11/26 08:50:27;;;;;;;21.85;8.77;;;;;;;6.69;92.81;102925.97;5063761;28;20039;-44
2022/11/26 08:52:52;;;;;;;28.23;9.10;;;;;;;6.72;92.89;102923.63;5062951;28;20066;-47
2022/11/26 08:55:17;;;;;;;28.60;9.25;;;;;;;6.78;93.36;102920.66;5060334;28;20497;-44
2022/11/26 08:57:43;;;;;;;24.27;9.43;;;;;;;6.81;93.11;102920.91;5060309;28;20040;-45
2022/11/26 09:00:08;;;;;;;21.13;8.43;;;;;;;6.82;93.18;102921.78;5070742;28;20089;-46
2022/11/26 09:02:34;;;;;;;24.40;9.15;;;;;;;6.85;93.22;102930.56;5069709;28;20021;-45
2022/11/26 09:04:59;;;;;;;27.67;9.23;;;;;;;6.89;93.63;102922.38;5068922;28;20024;-47
2022/11/26 09:07:24;;;;;;;25.48;9.98;;;;;;;6.89;93.51;102919.81;5065256;28;20036;-45
2022/11/26 09:09:50;;;;;;;26.92;9.55;;;;;;;6.94;93.43;102922.72;5065017;28;20068;-44
2022/11/26 09:12:15;;;;;;;25.27;10.07;;;;;;;6.92;93.70;102932.84;5064680;28;20469;-46
2022/11/26 09:14:40;;;;;;;25.38;9.52;;;;;;;6.94;93.68;102933.84;5066711;28;20408;-46
2022/11/26 09:17:06;;;;;;;24.15;9.57;;;;;;;6.93;94.10;102939.72;5064874;28;20414;-45
2022/11/26 09:19:32;;;;;;;27.00;9.98;;;;;;;6.94;93.90;102935.50;5070081;28;20020;-45
2022/11/26 09:21:58;;;;;;;22.40;8.93;;;;;;;6.95;94.13;102935.63;5066055;28;20021;-45
2022/11/26 09:24:23;;;;;;;29.38;9.90;;;;;;;6.97;94.69;102940.84;5065027;28;20081;-49
2022/11/26 09:26:49;;;;;;;27.92;9.45;;;;;;;7.06;94.61;102945.78;5066463;28;20639;-50
2022/11/26 09:29:18;;;;;;;26.33;10.02;;;;;;;7.05;94.70;102947.44;5065631;28;20419;-47
2022/11/26 09:31:44;;;;;;;22.60;9.67;;;;;;;7.11;94.94;102954.69;5068827;28;20024;-48
2022/11/26 09:34:10;;;;;;;22.25;9.60;;;;;;;7.09;94.73;102957.13;5067723;28;20286;-49
2022/11/26 09:36:35;;;;;;;23.27;9.43;;;;;;;7.13;95.18;102958.25;5063781;28;20021;-49
2022/11/26 09:39:01;;;;;;;32.53;10.40;;;;;;;7.19;95.33;102963.81;5068263;28;20086;-50
2022/11/26 09:41:53;;;;;;;24.80;10.35;;;;;;;7.25;95.17;102965.16;5065579;28;20377;-48
2022/11/26 09:44:30;;;;;;;26.92;9.80;;;;;;;7.25;95.42;102972.84;5066314;28;20035;-49
2022/11/26 09:47:08;;;;;;;31.08;10.40;;;;;;;7.29;95.62;102960.31;5063975;28;20031;-46
2022/11/26 09:50:05;;;;;;;24.65;9.40;;;;;;;7.32;95.79;102951.16;5064010;28;20645;-46
2022/11/26 09:52:58;;;;;;;27.45;9.32;;;;;;;7.33;96.05;102947.81;5056035;28;20033;-46
2022/11/26 09:55:29;;;;;;;29.25;8.40;;;;;;;7.34;96.25;102943.59;5070284;28;20416;-50
2022/11/26 09:57:58;;;;;;;31.38;9.10;;;;;;;7.39;96.21;102945.72;5068135;28;20451;-48
2022/11/26 10:00:25;;;;;;;22.65;8.30;;;;;;;7.40;96.45;102950.09;5069496;28;20461;-49
2022/11/26 10:02:52;;;;;;;21.10;7.88;;;;;;;7.40;96.55;102950.09;5066976;28;20394;-49
2022/11/26 10:05:18;;;;;;;30.73;9.15;;;;;;;7.44;96.77;102954.63;5069590;28;20028;-50
2022/11/26 10:08:06;;;;;;;25.58;8.77;;;;;;;7.48;96.79;102953.22;5070691;28;20441;-51
2022/11/26 10:10:50;;;;;;;27.77;9.15;;;;;;;7.52;96.87;102952.63;5071219;28;20027;-49
2022/11/26 10:13:24;;;;;;;26.42;8.52;;;;;;;7.50;97.15;102949.97;5069835;28;20016;-49
2022/11/26 10:16:23;;;;;;;26.83;8.63;;;;;;;7.57;97.09;102953.88;5070069;28;20143;-48
2022/11/26 10:19:17;;;;;;;30.40;7.97;;;;;;;7.64;97.30;102952.63;5070430;28;20516;-49
2022/11/26 10:21:50;;;;;;;29.80;8.30;;;;;;;7.64;97.47;102952.63;5065255;28;20516;-50
2022/11/26 10:24:40;;;;;;;24.83;8.38;;;;;;;7.67;97.94;102950.31;5061146;28;20059;-50
2022/11/26 10:27:17;;;;;;;28.20;9.15;;;;;;;7.73;97.73;102945.66;5062731;28;20060;-48
2022/11/26 10:29:48;;;;;;;26.90;7.78;;;;;;;7.78;98.08;102939.19;5067087;28;20477;-51
2022/11/26 10:32:15;;;;;;;25.58;8.73;;;;;;;7.93;98.19;102940.28;5060755;28;20032;-51
2022/11/26 10:34:55;;;;;;;24.60;8.35;;;;;;;8.05;97.76;102932.59;5069018;28;20016;-49
2022/11/26 10:37:23;;;;;;;24.77;8.50;;;;;;;8.12;97.05;102931.34;5066335;28;20053;-51
2022/11/26 10:39:56;;;;;;;27.80;8.03;;;;;;;8.22;97.53;102929.53;5068051;28;20476;-47
2022/11/26 10:42:22;;;;;;;31.23;8.32;;;;;;;8.25;96.81;102922.09;5065152;28;20446;-48
2022/11/26 10:44:52;;;;;;;23.80;8.30;;;;;;;8.32;97.00;102937.09;5064221;28;20159;-50
2022/11/26 10:47:26;;;;;;;32.78;8.50;;;;;;;8.36;97.21;102930.53;5061409;28;20032;-50
2022/11/26 10:50:13;;;;;;;30.60;9.02;;;;;;;8.41;96.78;102930.88;5063067;28;20047;-49
2022/11/26 10:52:38;;;;;;;30.30;8.40;;;;;;;8.44;96.45;102928.53;5061249;28;20094;-50
2022/11/26 10:55:12;;;;;;;24.02;8.68;;;;;;;8.48;96.69;102933.97;5064602;28;20469;-51
2022/11/26 10:57:42;;;;;;;27.25;7.75;;;;;;;8.53;96.79;102937.72;5064453;28;20060;-48
2022/11/26 11:00:48;;;;;;;25.88;7.68;;;;;;;8.60;96.64;102939.94;5064126;28;20024;-47
2022/11/26 11:03:21;;;;;;;23.75;7.40;;;;;;;8.64;96.51;102929.91;5057289;28;20113;-54
2022/11/26 11:05:46;;;;;;;20.42;7.05;;;;;;;8.65;96.24;102922.31;5063473;28;20036;-49
2022/11/26 11:08:31;;;;;;;30.48;7.60;;;;;;;8.75;96.53;102923.84;5061279;28;20780;-51
2022/11/26 11:11:01;;;;;;;26.13;7.05;;;;;;;8.75;96.54;102923.84;5060406;28;20059;-50
2022/11/26 11:13:47;;;;;;;21.80;7.22;;;;;;;8.84;96.60;102930.47;5061407;28;20045;-49
2022/11/26 11:16:17;;;;;;;24.73;7.60;;;;;;;8.85;96.41;102928.78;5064223;28;20081;-49
2022/11/26 11:18:52;;;;;;;25.15;7.90;;;;;;;8.90;96.82;102922.28;5065223;28;20074;-51
2022/11/26 11:21:20;;;;;;;28.30;7.47;;;;;;;8.95;96.99;102923.50;5070973;28;20036;-49
2022/11/26 11:23:46;;;;;;;31.23;8.40;;;;;;;9.01;96.28;102923.91;5062331;28;20029;-50
2022/11/26 11:26:19;;;;;;;24.50;6.82;;;;;;;9.06;96.61;102926.78;5064645;28;20028;-52
2022/11/26 11:28:48;;;;;;;23.63;6.90;;;;;;;9.09;96.75;102927.88;5060914;28;20424;-49
2022/11/26 11:31:18;;;;;;;25.48;7.18;;;;;;;9.15;96.42;102924.81;5063351;28;20020;-51